Time;durP1;ratioP1;P1;durP2;ratioP2;P2;SDS_P1;SDS_P2;PMS_P1;PMS_P2;Temp;Humidity;BMP_temperature;BMP_pressure;BME280_temperature;BME280_humidity;BME280_pressure;Samples;Min_cycle;Max_cycle;Signal;HPM_P1;HPM_P2
2023/11/09 00:02:24;;;;;;;12.20;7.40;;;;;;;7.59;83.87;99981.56;130577;1256;107177;-77
2023/11/09 00:05:30;;;;;;;11.80;8.10;;;;;;;7.52;84.10;99981.16;130810;1257;106935;-77
2023/11/09 00:08:37;;;;;;;12.50;8.10;;;;;;;7.45;84.00;99980.20;130565;1257;107665;-77
2023/11/09 00:11:44;;;;;;;12.10;7.70;;;;;;;7.37;83.91;99988.48;130538;1260;106710;-77
2023/11/09 00:14:50;;;;;;;12.50;7.90;;;;;;;7.31;83.89;99987.11;130599;1260;108733;-76
2023/11/09 00:17:56;;;;;;;11.70;6.90;;;;;;;7.23;84.10;99985.01;130544;1261;107758;-76
2023/11/09 00:21:03;;;;;;;11.90;7.30;;;;;;;7.18;84.27;99984.77;130639;1255;107721;-76
2023/11/09 00:24:11;;;;;;;11.10;6.70;;;;;;;7.13;84.46;99985.55;130535;1256;108522;-76
2023/11/09 00:27:23;;;;;;;13.30;7.90;;;;;;;7.11;84.28;99987.50;130669;1261;106934;-76
2023/11/09 00:30:28;;;;;;;14.70;8.40;;;;;;;7.12;84.31;99988.98;130452;1262;108575;-76
2023/11/09 00:33:34;;;;;;;11.80;8.20;;;;;;;7.13;84.34;99988.21;130576;1257;107602;-76
2023/11/09 00:36:40;;;;;;;11.80;8.10;;;;;;;7.13;84.51;99992.48;130533;1261;107827;-76
2023/11/09 00:39:46;;;;;;;14.00;9.10;;;;;;;7.09;84.51;99990.66;130505;1262;108617;-76
2023/11/09 00:42:51;;;;;;;14.10;8.10;;;;;;;7.05;84.55;99992.83;130548;1261;108214;-76
2023/11/09 00:45:57;;;;;;;12.10;7.60;;;;;;;6.98;84.39;99992.17;130521;1257;108763;-76
2023/11/09 00:49:03;;;;;;;12.50;7.30;;;;;;;6.93;84.55;99985.03;130458;1257;107575;-76
2023/11/09 00:52:08;;;;;;;12.30;7.30;;;;;;;6.91;84.60;99980.98;130487;1268;107349;-75
2023/11/09 00:55:14;;;;;;;12.90;7.90;;;;;;;6.93;84.75;99984.89;130461;1257;107651;-76
2023/11/09 00:58:19;;;;;;;14.20;8.10;;;;;;;6.94;84.60;99985.66;130610;1261;108790;-76
2023/11/09 01:01:25;;;;;;;13.00;8.20;;;;;;;6.96;84.61;99983.73;130510;1260;107049;-76
2023/11/09 01:04:30;;;;;;;10.20;7.40;;;;;;;6.96;84.63;99986.89;130480;1256;107470;-77
2023/11/09 01:07:36;;;;;;;12.50;7.70;;;;;;;6.93;84.39;99986.77;130666;1260;106953;-77
2023/11/09 01:10:43;;;;;;;13.60;8.40;;;;;;;6.90;84.70;99986.04;130620;1260;108616;-76
2023/11/09 01:13:48;;;;;;;11.40;6.80;;;;;;;6.84;84.91;99983.15;130552;1256;108630;-76
2023/11/09 01:16:54;;;;;;;11.10;6.90;;;;;;;6.79;84.63;99981.10;130561;1256;108843;-77
2023/11/09 01:20:00;;;;;;;14.30;7.40;;;;;;;6.75;84.67;99980.09;130588;1261;106736;-76
2023/11/09 01:23:07;;;;;;;10.80;7.30;;;;;;;6.74;84.88;99977.90;130634;1256;106652;-77
2023/11/09 01:26:13;;;;;;;11.50;7.10;;;;;;;6.73;84.72;99976.95;130609;1260;107741;-78
2023/11/09 01:29:21;;;;;;;13.10;7.60;;;;;;;6.70;84.72;99978.92;130674;1256;106881;-77
2023/11/09 01:32:28;;;;;;;11.60;6.70;;;;;;;6.66;84.57;99976.94;130569;1256;105905;-76
2023/11/09 01:35:34;;;;;;;11.10;7.50;;;;;;;6.59;84.42;99971.52;130604;1261;107734;-76
2023/11/09 01:38:40;;;;;;;10.00;6.90;;;;;;;6.55;84.56;99970.70;130504;1260;106320;-76
2023/11/09 01:41:48;;;;;;;8.90;6.10;;;;;;;6.47;84.12;99969.42;130562;1260;107864;-78
2023/11/09 01:44:53;;;;;;;8.80;6.30;;;;;;;6.38;84.18;99973.09;130602;1256;107174;-76
2023/11/09 01:48:00;;;;;;;9.90;6.60;;;;;;;6.31;84.40;99968.72;130566;1258;107700;-76
2023/11/09 01:51:06;;;;;;;12.10;7.90;;;;;;;6.24;84.19;99970.48;130584;1256;107651;-76
2023/11/09 01:54:13;;;;;;;13.90;7.60;;;;;;;6.22;84.17;99973.15;130573;1260;108671;-76
2023/11/09 01:57:20;;;;;;;13.00;8.50;;;;;;;6.19;84.33;99974.84;130547;1262;107763;-76
2023/11/09 02:00:27;;;;;;;14.10;9.10;;;;;;;6.14;84.33;99977.91;130506;1262;106736;-74
2023/11/09 02:03:34;;;;;;;15.60;10.00;;;;;;;6.09;84.37;99980.47;130706;1255;107319;-76
2023/11/09 02:06:41;;;;;;;14.50;8.90;;;;;;;6.04;84.13;99980.17;130796;1258;107101;-77
2023/11/09 02:09:46;;;;;;;12.80;8.40;;;;;;;6.00;84.18;99982.14;130542;1258;107692;-77
2023/11/09 02:12:52;;;;;;;15.30;9.70;;;;;;;5.97;84.18;99982.36;130706;1262;106413;-76
2023/11/09 02:15:58;;;;;;;12.70;8.20;;;;;;;5.95;84.14;99981.10;130536;1260;106556;-76
2023/11/09 02:19:06;;;;;;;14.30;8.70;;;;;;;5.93;83.84;99979.20;130678;1260;106521;-77
2023/11/09 02:22:12;;;;;;;13.50;8.90;;;;;;;5.90;84.25;99977.83;130510;1257;106428;-77
2023/11/09 02:25:18;;;;;;;15.10;9.10;;;;;;;5.86;83.97;99976.17;130585;1260;108422;-76
2023/11/09 02:28:23;;;;;;;15.50;9.70;;;;;;;5.81;83.95;99978.17;130626;1270;108596;-77
2023/11/09 02:31:30;;;;;;;14.00;8.30;;;;;;;5.76;84.16;99980.27;130663;1257;108781;-77
2023/11/09 02:34:37;;;;;;;11.90;7.50;;;;;;;5.68;84.13;99984.41;130610;1256;107629;-76
2023/11/09 02:37:43;;;;;;;13.30;8.50;;;;;;;5.63;84.15;99984.83;130671;1257;108185;-76
2023/11/09 02:40:49;;;;;;;14.90;9.20;;;;;;;5.63;83.90;99991.05;130476;1260;108546;-78
2023/11/09 02:43:54;;;;;;;15.40;8.70;;;;;;;5.62;84.30;99988.44;130470;1262;106665;-77
2023/11/09 02:47:00;;;;;;;13.90;9.00;;;;;;;5.61;84.16;99982.16;130610;1255;108531;-77
2023/11/09 02:50:07;;;;;;;14.10;8.80;;;;;;;5.58;84.13;99984.55;130572;1260;107116;-77
2023/11/09 02:53:12;;;;;;;14.20;8.40;;;;;;;5.53;84.13;99986.58;130721;1260;108668;-76
2023/11/09 02:56:18;;;;;;;12.30;8.10;;;;;;;5.47;84.16;99984.79;130523;1256;106689;-77
2023/11/09 02:59:23;;;;;;;9.40;6.90;;;;;;;5.42;84.38;99983.94;130607;1262;107717;-77
2023/11/09 03:02:29;;;;;;;11.30;7.00;;;;;;;5.39;84.52;99979.77;130577;1260;107725;-76
2023/11/09 03:05:34;;;;;;;16.30;8.80;;;;;;;5.40;84.70;99987.27;130758;1259;106511;-76
2023/11/09 03:08:41;;;;;;;12.80;8.10;;;;;;;5.44;84.67;99993.44;130628;1256;106744;-75
2023/11/09 03:11:47;;;;;;;14.50;8.60;;;;;;;5.46;84.73;99993.09;130527;1260;108581;-76
2023/11/09 03:14:52;;;;;;;12.70;8.50;;;;;;;5.43;84.71;99994.79;130633;1260;105733;-76
2023/11/09 03:17:58;;;;;;;12.50;9.10;;;;;;;5.41;84.59;100002.56;130564;1262;106643;-76
2023/11/09 03:21:04;;;;;;;11.50;8.10;;;;;;;5.38;84.64;99997.27;130529;1260;108499;-76
2023/11/09 03:24:10;;;;;;;12.50;8.30;;;;;;;5.36;84.48;99996.25;130525;1256;108465;-78
2023/11/09 03:27:16;;;;;;;12.40;7.40;;;;;;;5.30;84.54;99996.69;130674;1256;107191;-76
2023/11/09 03:30:21;;;;;;;22.20;13.00;;;;;;;5.27;84.64;99992.95;130611;1260;107477;-77
2023/11/09 03:33:27;;;;;;;27.50;14.60;;;;;;;5.24;84.82;99989.94;130645;1260;107260;-77
2023/11/09 03:36:34;;;;;;;17.70;12.20;;;;;;;5.25;85.14;99985.83;130700;1256;106979;-75
2023/11/09 03:39:40;;;;;;;48.80;23.30;;;;;;;5.27;84.89;99987.44;130713;1256;108677;-73
2023/11/09 03:42:46;;;;;;;19.50;12.30;;;;;;;5.29;84.76;99988.17;130588;1260;107125;-74
2023/11/09 03:45:52;;;;;;;16.70;10.50;;;;;;;5.28;84.93;99991.79;130438;1256;108652;-74
2023/11/09 03:48:59;;;;;;;22.10;13.90;;;;;;;5.27;84.98;99990.27;130517;1262;107668;-74
2023/11/09 03:52:05;;;;;;;15.70;12.20;;;;;;;5.25;84.91;99989.52;130526;1260;106752;-74
2023/11/09 03:55:11;;;;;;;11.30;8.10;;;;;;;5.23;84.96;99988.84;130646;1257;108594;-74
2023/11/09 03:58:17;;;;;;;14.00;10.40;;;;;;;5.22;85.09;99989.81;130702;1260;108545;-74
2023/11/09 04:01:22;;;;;;;13.60;8.50;;;;;;;5.20;85.18;99986.11;130540;1261;106718;-74
2023/11/09 04:04:28;;;;;;;14.30;9.40;;;;;;;5.20;85.15;99985.22;130608;1258;106528;-75
2023/11/09 04:07:34;;;;;;;11.90;8.50;;;;;;;5.21;85.09;99980.56;130677;1262;107979;-74
2023/11/09 04:10:39;;;;;;;11.50;7.80;;;;;;;5.25;85.31;99979.34;130712;1260;107099;-76
2023/11/09 04:13:45;;;;;;;14.50;9.10;;;;;;;5.25;84.88;99980.91;130704;1258;106768;-74
2023/11/09 04:16:50;;;;;;;12.10;8.80;;;;;;;5.23;85.07;99976.80;130673;1260;107718;-74
2023/11/09 04:19:56;;;;;;;11.00;8.10;;;;;;;5.21;85.00;99971.54;130671;1260;106938;-75
2023/11/09 04:23:02;;;;;;;11.50;8.30;;;;;;;5.17;85.22;99972.39;130677;1258;108390;-74
2023/11/09 04:26:08;;;;;;;11.10;7.10;;;;;;;5.12;85.15;99972.95;130637;1260;107663;-74
2023/11/09 04:29:15;;;;;;;14.00;6.60;;;;;;;5.08;84.95;99967.84;130559;1261;109480;-77
2023/11/09 04:32:20;;;;;;;10.00;6.90;;;;;;;5.04;85.13;99966.57;130657;1261;107757;-74
2023/11/09 04:35:26;;;;;;;27.00;17.50;;;;;;;5.01;85.18;99966.80;130588;1260;106876;-74
2023/11/09 04:38:36;;;;;;;16.30;10.00;;;;;;;5.00;85.21;99964.75;130649;1257;107445;-75
2023/11/09 04:41:42;;;;;;;11.70;7.60;;;;;;;5.01;85.00;99959.27;130647;1255;106719;-74
2023/11/09 04:44:50;;;;;;;14.30;8.50;;;;;;;4.98;84.95;99962.49;130647;1262;107851;-75
2023/11/09 04:47:58;;;;;;;23.00;11.10;;;;;;;4.95;84.70;99961.87;130643;1257;106739;-74
2023/11/09 04:51:06;;;;;;;17.60;9.20;;;;;;;4.89;84.94;99965.44;130731;1258;108534;-75
2023/11/09 04:54:17;;;;;;;18.10;9.00;;;;;;;4.83;85.02;99963.72;130828;1259;106948;-74
2023/11/09 05:07:31;;;;;;;11.20;8.10;;;;;;;4.75;85.22;99947.23;130772;1256;108129;-75
2023/11/09 05:10:37;;;;;;;14.10;7.80;;;;;;;4.78;85.19;99951.60;130558;1260;108511;-74
2023/11/09 05:13:42;;;;;;;11.60;7.90;;;;;;;4.79;85.12;99950.30;130648;1261;106263;-74
2023/11/09 05:16:48;;;;;;;12.70;8.30;;;;;;;4.73;84.99;99945.44;130568;1261;108519;-74
2023/11/09 05:19:57;;;;;;;13.90;7.90;;;;;;;4.71;85.26;99946.81;130574;1260;107777;-74
2023/11/09 05:23:02;;;;;;;12.40;8.70;;;;;;;4.69;85.28;99951.71;130657;1256;106569;-74
2023/11/09 05:26:08;;;;;;;14.00;8.60;;;;;;;4.66;85.41;99954.11;130576;1257;108416;-73
2023/11/09 05:29:13;;;;;;;13.90;8.30;;;;;;;4.63;85.34;99955.38;130556;1257;110264;-76
2023/11/09 05:32:19;;;;;;;13.00;8.00;;;;;;;4.61;85.55;99958.34;130566;1260;106968;-75
2023/11/09 05:35:25;;;;;;;14.40;8.70;;;;;;;4.64;85.58;99961.45;130600;1256;108453;-75
2023/11/09 05:38:31;;;;;;;16.00;9.80;;;;;;;4.67;85.70;99957.00;130573;1261;107616;-75
2023/11/09 05:41:36;;;;;;;16.00;9.20;;;;;;;4.71;85.44;99956.16;130654;1260;107386;-75
2023/11/09 05:44:42;;;;;;;12.30;8.40;;;;;;;4.72;85.48;99949.74;130660;1256;107310;-75
2023/11/09 05:47:47;;;;;;;15.70;9.80;;;;;;;4.71;85.58;99948.21;130621;1261;106389;-75
2023/11/09 05:50:54;;;;;;;15.30;9.10;;;;;;;4.70;85.61;99943.02;130607;1258;106617;-73
2023/11/09 05:54:00;;;;;;;12.60;8.10;;;;;;;4.69;85.70;99942.23;130622;1257;106577;-74
2023/11/09 05:57:06;;;;;;;16.60;10.20;;;;;;;4.69;85.84;99935.02;130557;1255;108358;-73
2023/11/09 06:00:13;;;;;;;12.40;8.10;;;;;;;4.71;85.77;99931.87;130648;1260;108334;-73
2023/11/09 06:03:19;;;;;;;12.10;7.20;;;;;;;4.76;85.92;99932.69;130516;1256;108958;-73
2023/11/09 06:06:25;;;;;;;11.80;8.50;;;;;;;4.80;85.54;99936.95;130582;1260;107168;-73
2023/11/09 06:09:32;;;;;;;12.30;8.60;;;;;;;4.86;85.47;99937.53;130477;1257;107999;-73
2023/11/09 06:12:37;;;;;;;15.80;9.20;;;;;;;4.91;85.43;99941.23;130533;1260;108630;-73
2023/11/09 06:15:43;;;;;;;16.90;9.80;;;;;;;4.94;85.53;99944.45;130553;1256;107784;-73
2023/11/09 06:18:48;;;;;;;13.50;9.60;;;;;;;4.97;85.47;99942.70;130605;1256;107752;-73
2023/11/09 06:21:57;;;;;;;17.80;10.80;;;;;;;4.95;85.33;99947.92;130639;1260;106334;-74
2023/11/09 06:25:02;;;;;;;18.30;10.40;;;;;;;4.95;85.40;99953.58;130615;1257;108680;-72
2023/11/09 06:28:08;;;;;;;15.20;9.80;;;;;;;4.94;85.40;99955.37;130632;1256;108741;-73
2023/11/09 06:31:14;;;;;;;16.40;9.60;;;;;;;4.92;85.60;99957.13;130591;1260;108547;-73
2023/11/09 06:34:19;;;;;;;13.40;9.30;;;;;;;4.96;85.67;99953.79;130602;1260;108573;-73
2023/11/09 06:37:26;;;;;;;14.90;9.90;;;;;;;5.01;85.60;99946.52;130621;1257;108720;-73
2023/11/09 06:40:34;;;;;;;17.20;10.40;;;;;;;5.08;85.78;99947.91;130621;1256;108389;-73
2023/11/09 06:43:39;;;;;;;15.00;9.70;;;;;;;5.13;85.72;99950.13;130646;1261;107411;-73
2023/11/09 06:46:45;;;;;;;22.30;12.60;;;;;;;5.17;85.59;99951.81;130648;1261;107833;-72
2023/11/09 06:49:50;;;;;;;16.20;10.70;;;;;;;5.20;85.62;99953.81;130654;1261;107139;-73
2023/11/09 06:52:56;;;;;;;18.80;11.00;;;;;;;5.22;85.89;99948.69;130561;1256;108306;-73
2023/11/09 06:56:02;;;;;;;15.00;10.40;;;;;;;5.25;85.86;99948.24;130636;1260;108397;-73
2023/11/09 06:59:08;;;;;;;19.40;11.10;;;;;;;5.32;86.02;99946.79;130615;1260;109567;-73
2023/11/09 07:02:14;;;;;;;18.30;11.40;;;;;;;5.41;86.19;99948.50;130581;1260;107706;-76
2023/11/09 07:05:22;;;;;;;15.80;10.70;;;;;;;5.52;86.27;99942.90;130603;1260;107729;-73
2023/11/09 07:08:28;;;;;;;14.70;10.80;;;;;;;5.63;86.23;99947.21;130697;1256;106767;-72
2023/11/09 07:11:34;;;;;;;15.90;11.70;;;;;;;5.75;86.14;99944.61;130637;1260;107667;-73
2023/11/09 07:14:41;;;;;;;16.80;11.30;;;;;;;5.84;86.22;99942.77;130608;1260;107599;-73
2023/11/09 07:17:47;;;;;;;16.60;10.50;;;;;;;5.93;85.92;99941.41;130534;1260;106877;-75
2023/11/09 07:20:52;;;;;;;19.60;10.90;;;;;;;6.00;86.27;99940.42;130541;1257;106428;-73
2023/11/09 07:24:04;;;;;;;18.60;11.40;;;;;;;6.13;86.33;99939.64;130624;1261;106533;-73
2023/11/09 07:27:10;;;;;;;17.60;11.20;;;;;;;6.26;86.42;99937.86;130676;1267;106490;-74
2023/11/09 07:30:18;;;;;;;18.60;11.60;;;;;;;6.40;86.52;99940.75;130681;1261;108774;-74
2023/11/09 07:33:24;;;;;;;21.00;12.70;;;;;;;6.52;86.22;99936.49;130568;1256;107274;-74
2023/11/09 07:36:29;;;;;;;17.10;10.90;;;;;;;6.62;86.18;99934.05;130539;1262;107895;-75
2023/11/09 07:39:35;;;;;;;16.40;10.90;;;;;;;6.74;86.13;99936.85;130645;1260;106793;-74
2023/11/09 07:42:43;;;;;;;16.60;10.10;;;;;;;6.84;86.14;99929.41;130612;1260;106421;-74
2023/11/09 07:45:48;;;;;;;14.40;8.90;;;;;;;6.95;85.99;99928.81;130654;1256;108388;-73
2023/11/09 07:48:57;;;;;;;16.10;10.60;;;;;;;7.09;86.13;99930.53;130614;1260;107669;-73
2023/11/09 07:52:05;;;;;;;17.20;9.90;;;;;;;7.20;86.03;99927.74;130602;1262;107564;-73
2023/11/09 07:55:10;;;;;;;17.50;11.00;;;;;;;7.31;86.18;99930.67;130633;1260;108640;-73
2023/11/09 07:58:17;;;;;;;17.50;10.30;;;;;;;7.40;85.98;99929.86;130671;1261;107670;-73
2023/11/09 08:01:22;;;;;;;18.00;10.50;;;;;;;7.45;85.74;99930.25;130660;1257;106600;-73
2023/11/09 08:04:28;;;;;;;14.70;10.20;;;;;;;7.51;85.69;99934.55;130623;1260;107647;-74
2023/11/09 08:07:33;;;;;;;16.10;10.10;;;;;;;7.53;85.87;99930.60;130582;1260;106647;-73
2023/11/09 08:10:39;;;;;;;16.80;9.60;;;;;;;7.56;85.69;99923.98;130505;1260;108003;-76
2023/11/09 08:13:44;;;;;;;14.10;8.60;;;;;;;7.60;85.68;99924.81;130611;1256;106510;-74
2023/11/09 08:16:50;;;;;;;15.70;10.30;;;;;;;7.65;85.74;99922.59;130537;1256;106127;-73
2023/11/09 08:19:55;;;;;;;16.70;9.90;;;;;;;7.72;85.50;99920.90;130637;1256;107299;-73
2023/11/09 08:23:01;;;;;;;13.80;9.40;;;;;;;7.78;85.42;99921.20;130615;1261;108720;-73
2023/11/09 08:26:07;;;;;;;15.60;9.50;;;;;;;7.81;85.46;99922.20;130655;1257;107162;-73
2023/11/09 08:29:13;;;;;;;13.40;9.30;;;;;;;7.82;85.30;99917.44;130778;1260;108602;-73
2023/11/09 08:32:19;;;;;;;17.20;10.00;;;;;;;7.82;85.41;99913.72;130645;1256;108592;-74
2023/11/09 08:35:25;;;;;;;15.60;9.90;;;;;;;7.81;85.27;99915.20;130579;1256;108680;-74
2023/11/09 08:38:33;;;;;;;13.70;8.80;;;;;;;7.80;85.13;99917.48;130479;1257;107849;-76
2023/11/09 08:41:39;;;;;;;58.40;36.00;;;;;;;7.81;85.25;99917.86;130531;1262;107380;-73
2023/11/09 08:44:45;;;;;;;52.00;32.90;;;;;;;7.85;85.17;99916.98;130686;1262;107660;-73
2023/11/09 08:47:51;;;;;;;19.10;12.40;;;;;;;7.93;85.12;99908.15;130588;1260;108675;-73
2023/11/09 08:51:00;;;;;;;30.50;19.00;;;;;;;8.00;85.01;99905.38;130648;1260;107605;-74
2023/11/09 08:54:07;;;;;;;24.50;17.50;;;;;;;8.02;84.84;99899.29;130628;1271;106412;-75
2023/11/09 08:57:12;;;;;;;16.00;11.10;;;;;;;8.03;84.84;99900.77;130587;1260;107069;-73
2023/11/09 09:00:19;;;;;;;13.00;8.70;;;;;;;8.04;84.79;99899.28;130561;1261;108614;-76
2023/11/09 09:03:24;;;;;;;19.20;12.20;;;;;;;8.03;84.69;99899.91;130576;1260;107673;-75
2023/11/09 09:06:31;;;;;;;18.50;9.50;;;;;;;8.03;84.84;99892.33;130751;1260;108539;-74
2023/11/09 09:09:37;;;;;;;13.30;8.10;;;;;;;8.06;84.90;99888.29;130460;1257;107777;-73
2023/11/09 09:12:45;;;;;;;13.70;8.40;;;;;;;8.12;84.95;99883.85;130640;1256;106705;-73
2023/11/09 09:15:53;;;;;;;13.00;8.60;;;;;;;8.20;84.59;99883.44;130585;1262;107629;-73
2023/11/09 09:18:58;;;;;;;10.70;7.60;;;;;;;8.27;84.58;99881.33;130594;1261;108668;-73
2023/11/09 09:22:04;;;;;;;13.30;7.40;;;;;;;8.33;84.27;99872.42;130529;1262;107621;-73
2023/11/09 09:25:11;;;;;;;10.40;6.80;;;;;;;8.36;83.99;99870.89;130621;1257;107953;-73
2023/11/09 09:28:19;;;;;;;13.40;7.40;;;;;;;8.40;84.16;99864.83;130562;1260;108526;-78
2023/11/09 09:31:24;;;;;;;11.50;7.20;;;;;;;8.46;84.21;99858.66;130606;1256;106985;-74
2023/11/09 09:34:31;;;;;;;15.20;8.70;;;;;;;8.50;84.21;99852.03;130542;1262;108791;-74
2023/11/09 09:37:37;;;;;;;14.00;9.20;;;;;;;8.53;84.01;99844.11;130615;1262;106888;-73
2023/11/09 09:40:43;;;;;;;13.70;9.90;;;;;;;8.60;84.14;99844.71;130612;1256;106763;-73
2023/11/09 09:43:49;;;;;;;17.80;12.10;;;;;;;8.71;84.02;99839.94;130655;1262;108631;-74
2023/11/09 09:46:58;;;;;;;19.80;12.80;;;;;;;8.80;83.68;99837.73;130583;1262;107674;-74
2023/11/09 09:50:07;;;;;;;15.40;9.50;;;;;;;8.89;83.39;99835.29;130682;1262;108402;-73
2023/11/09 09:53:13;;;;;;;15.90;11.10;;;;;;;8.95;83.58;99828.99;130737;1262;105759;-74
2023/11/09 09:56:21;;;;;;;11.60;7.20;;;;;;;9.00;83.40;99825.80;130590;1256;107690;-75
2023/11/09 09:59:27;;;;;;;10.90;6.90;;;;;;;9.03;82.99;99832.92;130700;1256;106895;-74
2023/11/09 10:02:36;;;;;;;8.60;5.80;;;;;;;9.06;83.17;99832.02;130628;1262;107670;-74
2023/11/09 10:05:43;;;;;;;8.80;5.80;;;;;;;9.08;82.60;99824.30;130520;1262;108024;-74
2023/11/09 10:08:49;;;;;;;10.30;5.00;;;;;;;9.09;82.77;99823.52;130606;1262;107968;-75
2023/11/09 10:11:55;;;;;;;7.30;5.00;;;;;;;9.15;82.90;99821.64;130554;1262;107759;-73
2023/11/09 10:15:03;;;;;;;9.40;5.10;;;;;;;9.24;82.29;99819.50;130620;1257;108713;-74
2023/11/09 10:18:11;;;;;;;8.10;5.30;;;;;;;9.31;82.43;99811.67;130604;1262;107698;-74
2023/11/09 10:21:18;;;;;;;7.70;4.90;;;;;;;9.39;82.53;99808.16;130628;1261;108470;-74
2023/11/09 10:24:23;;;;;;;8.30;5.20;;;;;;;9.46;82.03;99809.54;130572;1257;108458;-73
2023/11/09 10:27:30;;;;;;;8.70;5.10;;;;;;;9.49;82.16;99806.91;130496;1262;108747;-73
2023/11/09 10:30:38;;;;;;;7.00;5.10;;;;;;;9.51;81.74;99797.80;130648;1261;106552;-74
2023/11/09 10:33:52;;;;;;;8.20;5.20;;;;;;;9.54;81.54;99798.04;132676;1256;108579;-74
2023/11/09 10:36:59;;;;;;;7.50;5.50;;;;;;;9.58;81.97;99792.65;130738;1262;108759;-74
2023/11/09 10:40:06;;;;;;;8.40;5.30;;;;;;;9.61;82.14;99786.64;130679;1256;108635;-73
2023/11/09 10:43:14;;;;;;;7.30;4.40;;;;;;;9.64;81.55;99777.95;130725;1262;106877;-74
2023/11/09 10:46:20;;;;;;;11.00;4.60;;;;;;;9.71;81.39;99771.98;130609;1256;178480;-74
2023/11/09 10:49:30;;;;;;;7.80;4.90;;;;;;;9.82;81.33;99770.89;130747;1260;107778;-74
2023/11/09 10:52:36;;;;;;;8.30;4.70;;;;;;;9.93;80.37;99766.48;130577;1270;106920;-74
2023/11/09 10:55:43;;;;;;;7.10;4.50;;;;;;;10.02;81.35;99762.15;130631;1257;107489;-73
2023/11/09 10:58:49;;;;;;;8.50;4.80;;;;;;;10.11;81.11;99763.22;130543;1262;106806;-74
2023/11/09 11:02:01;;;;;;;6.10;4.30;;;;;;;10.17;80.87;99763.06;130561;1262;108554;-74
2023/11/09 11:05:08;;;;;;;11.30;4.50;;;;;;;10.22;80.85;99757.34;130657;1260;107689;-74
2023/11/09 11:08:22;;;;;;;9.00;4.60;;;;;;;10.27;80.85;99757.19;130614;1262;108604;-73
2023/11/09 11:11:31;;;;;;;5.30;3.90;;;;;;;10.31;80.44;99756.65;130549;1260;107265;-73
2023/11/09 11:14:41;;;;;;;6.30;4.20;;;;;;;10.33;80.40;99758.52;130713;1256;108487;-73
2023/11/09 11:18:01;;;;;;;10.30;7.30;;;;;;;10.34;80.47;99752.73;130598;1261;108774;-74
2023/11/09 11:21:23;;;;;;;11.00;4.80;;;;;;;10.36;79.68;99750.27;130535;1262;106523;-73
2023/11/09 11:25:14;;;;;;;8.90;4.40;;;;;;;10.31;79.63;99744.15;130593;1262;108586;-74
2023/11/09 11:28:20;;;;;;;16.50;7.80;;;;;;;10.27;79.91;99741.41;130413;1260;106901;-74
2023/11/09 11:31:27;;;;;;;20.90;11.30;;;;;;;10.23;79.50;99739.08;130603;1256;107734;-74
2023/11/09 11:34:50;;;;;;;18.80;9.70;;;;;;;10.20;79.61;99736.27;130589;1262;107633;-74
2023/11/09 11:38:05;;;;;;;8.10;4.20;;;;;;;10.20;79.41;99736.07;130594;1270;108808;-75
2023/11/09 11:41:22;;;;;;;9.20;5.30;;;;;;;10.24;79.60;99731.84;130761;1263;107156;-74
2023/11/09 11:44:38;;;;;;;7.40;4.30;;;;;;;10.33;79.34;99727.79;130613;1263;107190;-74
2023/11/09 11:47:45;;;;;;;16.60;7.90;;;;;;;10.44;79.30;99725.18;130577;1260;108073;-74
2023/11/09 11:50:55;;;;;;;19.50;10.90;;;;;;;10.52;78.88;99724.27;130646;1257;107709;-74
2023/11/09 11:54:09;;;;;;;9.80;4.80;;;;;;;10.62;79.06;99724.86;130506;1263;106663;-73
2023/11/09 11:57:15;;;;;;;13.90;8.40;;;;;;;10.70;77.86;99726.29;130506;1262;108655;-75
2023/11/09 12:00:38;;;;;;;9.60;4.80;;;;;;;10.76;78.46;99719.91;130643;1260;106743;-75
2023/11/09 12:03:44;;;;;;;8.80;4.30;;;;;;;10.82;78.31;99718.95;130619;1262;106389;-74
2023/11/09 12:06:53;;;;;;;6.60;3.40;;;;;;;10.85;78.03;99714.54;130524;1257;108074;-74
2023/11/09 12:09:59;;;;;;;11.00;5.50;;;;;;;10.88;78.07;99711.13;130527;1260;108622;-75
2023/11/09 12:13:05;;;;;;;15.50;5.60;;;;;;;10.91;77.70;99710.14;130618;1260;108619;-75
2023/11/09 12:16:12;;;;;;;16.30;9.10;;;;;;;10.92;77.80;99704.98;130677;1260;109003;-75
2023/11/09 12:19:18;;;;;;;13.70;7.50;;;;;;;10.94;77.50;99698.38;130625;1262;107866;-75
2023/11/09 12:22:24;;;;;;;21.10;12.20;;;;;;;10.92;76.99;99698.96;130572;1262;107667;-75
2023/11/09 12:25:29;;;;;;;10.20;5.60;;;;;;;10.90;77.20;99698.26;130577;1260;108210;-75
2023/11/09 12:28:35;;;;;;;9.10;5.70;;;;;;;10.88;76.61;99691.20;130583;1256;107773;-75
2023/11/09 12:31:40;;;;;;;6.50;4.00;;;;;;;10.86;76.68;99687.21;130714;1260;107695;-75
2023/11/09 12:34:46;;;;;;;5.50;2.90;;;;;;;10.84;76.55;99687.26;130713;1270;107953;-76
2023/11/09 12:38:01;;;;;;;8.70;4.80;;;;;;;10.82;76.53;99686.02;130637;1265;106411;-75
2023/11/09 12:41:07;;;;;;;5.70;3.50;;;;;;;10.81;76.43;99683.48;130558;1263;107717;-75
2023/11/09 12:44:15;;;;;;;9.40;3.70;;;;;;;10.80;76.24;99681.42;130763;1262;107706;-75
2023/11/09 12:47:21;;;;;;;10.20;6.10;;;;;;;10.79;76.33;99669.41;130640;1257;107185;-75
2023/11/09 12:50:33;;;;;;;11.20;6.00;;;;;;;10.81;76.11;99666.40;130686;1256;108782;-75
2023/11/09 12:53:39;;;;;;;6.30;3.40;;;;;;;10.81;75.81;99661.52;130612;1256;107636;-74
2023/11/09 12:56:45;;;;;;;6.10;3.30;;;;;;;10.81;75.48;99660.16;130612;1258;107612;-74
2023/11/09 12:59:55;;;;;;;8.00;4.70;;;;;;;10.80;75.75;99660.90;130733;1262;107614;-75
2023/11/09 13:03:03;;;;;;;6.30;3.50;;;;;;;10.81;75.78;99654.99;130582;1261;107692;-74
2023/11/09 13:06:12;;;;;;;6.50;3.20;;;;;;;10.82;75.31;99651.88;130649;1260;106732;-74
2023/11/09 13:09:38;;;;;;;4.90;3.10;;;;;;;10.81;75.13;99653.70;130550;1260;106705;-76
2023/11/09 13:12:46;;;;;;;6.70;3.80;;;;;;;10.81;75.23;99649.95;130585;1258;106528;-74
2023/11/09 13:15:56;;;;;;;6.40;3.30;;;;;;;10.82;75.01;99645.98;130661;1270;108608;-74
2023/11/09 13:19:03;;;;;;;17.00;8.80;;;;;;;10.83;74.81;99646.75;130556;1270;107859;-74
2023/11/09 13:22:13;;;;;;;9.50;5.30;;;;;;;10.84;74.51;99640.61;130600;1260;108559;-74
2023/11/09 13:25:22;;;;;;;7.10;2.90;;;;;;;10.86;74.75;99641.40;130637;1270;107078;-74
2023/11/09 13:28:29;;;;;;;5.90;3.40;;;;;;;10.88;74.55;99636.63;130611;1257;107125;-75
2023/11/09 13:31:39;;;;;;;6.30;2.80;;;;;;;10.88;74.39;99632.36;130661;1271;107203;-75
2023/11/09 13:34:47;;;;;;;5.50;2.70;;;;;;;10.87;74.80;99633.45;130652;1260;107527;-75
2023/11/09 13:37:57;;;;;;;4.40;2.30;;;;;;;10.87;74.42;99636.56;130609;1260;107018;-75
2023/11/09 13:41:16;;;;;;;4.90;2.80;;;;;;;10.84;74.26;99628.54;130699;1260;108710;-75
2023/11/09 13:44:24;;;;;;;5.50;3.40;;;;;;;10.80;73.88;99625.54;130673;1262;106839;-76
2023/11/09 13:47:31;;;;;;;11.20;6.40;;;;;;;10.76;73.84;99621.73;130595;1260;107659;-75
2023/11/09 13:50:37;;;;;;;6.80;3.40;;;;;;;10.73;73.78;99619.55;130631;1257;108583;-75
2023/11/09 13:53:49;;;;;;;8.60;3.00;;;;;;;10.69;72.93;99622.73;130577;1257;107777;-74
2023/11/09 14:00:33;;;;;;;7.90;4.80;;;;;;;10.58;73.61;99620.30;130760;1260;107808;-76
2023/11/09 14:03:42;;;;;;;4.70;2.50;;;;;;;10.50;73.44;99619.42;130629;1262;109033;-76
2023/11/09 14:06:49;;;;;;;5.80;3.10;;;;;;;10.42;73.29;99618.12;130657;1263;106907;-76
2023/11/09 14:09:55;;;;;;;3.60;2.60;;;;;;;10.36;73.35;99616.50;130626;1264;107884;-76
2023/11/09 14:13:09;;;;;;;8.50;4.90;;;;;;;10.30;73.36;99613.98;130624;1258;106918;-76
2023/11/09 14:16:19;;;;;;;12.30;8.00;;;;;;;10.24;73.48;99614.77;130581;1263;108427;-77
2023/11/09 14:19:34;;;;;;;13.50;9.60;;;;;;;10.18;72.98;99619.16;130638;1260;106968;-77
2023/11/09 14:22:40;;;;;;;8.30;4.90;;;;;;;10.11;73.36;99628.81;130655;1257;106801;-77
2023/11/09 14:25:46;;;;;;;7.50;4.40;;;;;;;10.03;73.29;99624.84;130651;1260;107081;-76
2023/11/09 14:28:59;;;;;;;7.00;3.80;;;;;;;9.95;73.32;99623.01;130567;1270;107682;-75
2023/11/09 14:32:05;;;;;;;6.50;3.50;;;;;;;9.88;73.29;99615.30;130601;1260;107322;-76